sensor_id;sensor_type;location;lat;lon;timestamp;P1;durP1;ratioP1;P2;durP2;ratioP2
4166;SDS011;2097;51.104;7.150;2022-07-23T00:00:04;63.10;;;5.67;;
4166;SDS011;2097;51.104;7.150;2022-07-23T00:02:32;63.03;;;5.70;;
4166;SDS011;2097;51.104;7.150;2022-07-23T00:05:00;62.70;;;5.60;;
4166;SDS011;2097;51.104;7.150;2022-07-23T00:07:27;62.93;;;5.63;;
4166;SDS011;2097;51.104;7.150;2022-07-23T00:09:54;62.60;;;5.13;;
4166;SDS011;2097;51.104;7.150;2022-07-23T00:12:20;62.97;;;5.60;;
4166;SDS011;2097;51.104;7.150;2022-07-23T00:14:47;62.40;;;5.23;;
4166;SDS011;2097;51.104;7.150;2022-07-23T00:17:14;62.03;;;4.40;;
4166;SDS011;2097;51.104;7.150;2022-07-23T00:19:41;62.03;;;4.60;;
4166;SDS011;2097;51.104;7.150;2022-07-23T00:22:09;62.60;;;4.63;;
4166;SDS011;2097;51.104;7.150;2022-07-23T00:24:36;62.50;;;4.17;;
4166;SDS011;2097;51.104;7.150;2022-07-23T00:27:02;62.00;;;4.50;;
4166;SDS011;2097;51.104;7.150;2022-07-23T00:29:29;62.20;;;4.60;;
4166;SDS011;2097;51.104;7.150;2022-07-23T00:31:56;62.57;;;4.77;;
4166;SDS011;2097;51.104;7.150;2022-07-23T00:34:23;62.30;;;4.50;;
4166;SDS011;2097;51.104;7.150;2022-07-23T00:36:50;62.60;;;5.10;;
4166;SDS011;2097;51.104;7.150;2022-07-23T00:39:20;62.57;;;5.50;;
4166;SDS011;2097;51.104;7.150;2022-07-23T00:41:47;62.37;;;5.27;;
4166;SDS011;2097;51.104;7.150;2022-07-23T00:44:14;62.53;;;5.27;;
4166;SDS011;2097;51.104;7.150;2022-07-23T00:46:44;62.40;;;5.40;;
4166;SDS011;2097;51.104;7.150;2022-07-23T00:49:12;62.13;;;4.87;;
4166;SDS011;2097;51.104;7.150;2022-07-23T00:51:39;65.17;;;5.70;;
4166;SDS011;2097;51.104;7.150;2022-07-23T00:54:05;62.93;;;6.03;;
4166;SDS011;2097;51.104;7.150;2022-07-23T00:56:33;62.87;;;5.90;;
4166;SDS011;2097;51.104;7.150;2022-07-23T00:59:01;63.13;;;5.93;;
4166;SDS011;2097;51.104;7.150;2022-07-23T01:01:28;62.87;;;6.10;;
4166;SDS011;2097;51.104;7.150;2022-07-23T01:03:55;62.47;;;5.20;;
4166;SDS011;2097;51.104;7.150;2022-07-23T01:06:21;62.87;;;5.87;;
4166;SDS011;2097;51.104;7.150;2022-07-23T01:08:48;62.40;;;4.90;;
4166;SDS011;2097;51.104;7.150;2022-07-23T01:11:15;62.77;;;5.60;;
4166;SDS011;2097;51.104;7.150;2022-07-23T01:13:45;62.67;;;5.47;;
4166;SDS011;2097;51.104;7.150;2022-07-23T01:16:11;62.70;;;5.90;;
4166;SDS011;2097;51.104;7.150;2022-07-23T01:18:38;62.20;;;4.87;;
4166;SDS011;2097;51.104;7.150;2022-07-23T01:21:05;62.10;;;4.73;;
4166;SDS011;2097;51.104;7.150;2022-07-23T01:23:34;62.20;;;4.93;;
4166;SDS011;2097;51.104;7.150;2022-07-23T01:26:00;62.57;;;5.13;;
4166;SDS011;2097;51.104;7.150;2022-07-23T01:28:27;62.20;;;4.63;;
4166;SDS011;2097;51.104;7.150;2022-07-23T01:30:54;62.40;;;5.30;;
4166;SDS011;2097;51.104;7.150;2022-07-23T01:33:21;62.20;;;4.87;;
4166;SDS011;2097;51.104;7.150;2022-07-23T01:35:47;62.80;;;5.77;;
4166;SDS011;2097;51.104;7.150;2022-07-23T01:38:14;62.30;;;5.27;;
4166;SDS011;2097;51.104;7.150;2022-07-23T01:40:42;62.43;;;5.23;;
4166;SDS011;2097;51.104;7.150;2022-07-23T01:43:09;62.50;;;4.90;;
4166;SDS011;2097;51.104;7.150;2022-07-23T01:45:36;62.47;;;5.67;;
4166;SDS011;2097;51.104;7.150;2022-07-23T01:48:03;62.33;;;5.63;;
4166;SDS011;2097;51.104;7.150;2022-07-23T01:50:30;62.47;;;5.20;;
4166;SDS011;2097;51.104;7.150;2022-07-23T01:52:57;62.67;;;5.50;;
4166;SDS011;2097;51.104;7.150;2022-07-23T01:55:24;62.37;;;5.53;;
4166;SDS011;2097;51.104;7.150;2022-07-23T01:57:52;62.60;;;5.57;;
4166;SDS011;2097;51.104;7.150;2022-07-23T02:00:18;62.20;;;4.63;;
4166;SDS011;2097;51.104;7.150;2022-07-23T02:02:45;62.40;;;4.93;;
4166;SDS011;2097;51.104;7.150;2022-07-23T02:05:12;62.40;;;5.20;;
4166;SDS011;2097;51.104;7.150;2022-07-23T02:07:39;62.10;;;4.57;;
4166;SDS011;2097;51.104;7.150;2022-07-23T02:10:06;62.83;;;6.00;;
4166;SDS011;2097;51.104;7.150;2022-07-23T02:12:33;61.80;;;4.30;;
4166;SDS011;2097;51.104;7.150;2022-07-23T02:15:02;62.40;;;5.00;;
4166;SDS011;2097;51.104;7.150;2022-07-23T02:17:29;62.20;;;4.80;;
4166;SDS011;2097;51.104;7.150;2022-07-23T02:19:56;62.77;;;5.10;;
4166;SDS011;2097;51.104;7.150;2022-07-23T02:22:23;62.37;;;5.10;;
4166;SDS011;2097;51.104;7.150;2022-07-23T02:24:49;62.57;;;5.30;;
4166;SDS011;2097;51.104;7.150;2022-07-23T02:27:16;62.63;;;5.00;;
4166;SDS011;2097;51.104;7.150;2022-07-23T02:29:43;62.87;;;5.30;;
4166;SDS011;2097;51.104;7.150;2022-07-23T02:32:11;62.20;;;4.63;;
4166;SDS011;2097;51.104;7.150;2022-07-23T02:34:38;63.87;;;5.33;;
4166;SDS011;2097;51.104;7.150;2022-07-23T02:37:05;62.40;;;4.73;;
4166;SDS011;2097;51.104;7.150;2022-07-23T02:39:33;62.20;;;4.90;;
4166;SDS011;2097;51.104;7.150;2022-07-23T02:42:00;62.40;;;4.87;;
4166;SDS011;2097;51.104;7.150;2022-07-23T02:44:27;62.47;;;4.60;;
4166;SDS011;2097;51.104;7.150;2022-07-23T02:46:54;62.07;;;4.27;;
4166;SDS011;2097;51.104;7.150;2022-07-23T02:49:23;61.73;;;4.00;;
4166;SDS011;2097;51.104;7.150;2022-07-23T02:51:49;61.57;;;3.60;;
4166;SDS011;2097;51.104;7.150;2022-07-23T02:54:16;61.80;;;4.10;;
4166;SDS011;2097;51.104;7.150;2022-07-23T02:56:43;62.10;;;4.57;;
4166;SDS011;2097;51.104;7.150;2022-07-23T02:59:10;61.90;;;4.43;;
4166;SDS011;2097;51.104;7.150;2022-07-23T03:01:37;62.10;;;4.40;;
4166;SDS011;2097;51.104;7.150;2022-07-23T03:04:04;62.27;;;4.87;;
4166;SDS011;2097;51.104;7.150;2022-07-23T03:06:32;62.70;;;5.10;;
4166;SDS011;2097;51.104;7.150;2022-07-23T03:08:59;62.87;;;4.90;;
4166;SDS011;2097;51.104;7.150;2022-07-23T03:11:28;62.30;;;5.00;;
4166;SDS011;2097;51.104;7.150;2022-07-23T03:13:55;62.63;;;5.43;;
4166;SDS011;2097;51.104;7.150;2022-07-23T03:16:22;62.40;;;5.37;;
4166;SDS011;2097;51.104;7.150;2022-07-23T03:18:48;62.97;;;6.30;;
4166;SDS011;2097;51.104;7.150;2022-07-23T03:21:15;62.37;;;5.20;;
4166;SDS011;2097;51.104;7.150;2022-07-23T03:23:43;63.50;;;5.90;;
4166;SDS011;2097;51.104;7.150;2022-07-23T03:26:10;62.57;;;5.17;;
4166;SDS011;2097;51.104;7.150;2022-07-23T03:28:37;62.90;;;5.27;;
4166;SDS011;2097;51.104;7.150;2022-07-23T03:31:04;62.37;;;4.50;;
4166;SDS011;2097;51.104;7.150;2022-07-23T03:33:30;62.37;;;5.00;;
4166;SDS011;2097;51.104;7.150;2022-07-23T03:35:57;62.77;;;5.10;;
4166;SDS011;2097;51.104;7.150;2022-07-23T03:38:24;62.20;;;4.90;;
4166;SDS011;2097;51.104;7.150;2022-07-23T03:40:52;62.80;;;5.20;;
4166;SDS011;2097;51.104;7.150;2022-07-23T03:43:19;62.00;;;4.30;;
4166;SDS011;2097;51.104;7.150;2022-07-23T03:45:46;61.90;;;4.43;;
4166;SDS011;2097;51.104;7.150;2022-07-23T03:48:12;62.07;;;4.83;;
4166;SDS011;2097;51.104;7.150;2022-07-23T03:50:39;62.57;;;5.07;;
4166;SDS011;2097;51.104;7.150;2022-07-23T03:53:06;62.27;;;4.97;;
4166;SDS011;2097;51.104;7.150;2022-07-23T03:55:33;62.23;;;4.67;;
4166;SDS011;2097;51.104;7.150;2022-07-23T03:58:01;62.47;;;4.60;;
4166;SDS011;2097;51.104;7.150;2022-07-23T04:00:28;62.40;;;4.30;;
4166;SDS011;2097;51.104;7.150;2022-07-23T04:02:54;62.47;;;4.87;;
4166;SDS011;2097;51.104;7.150;2022-07-23T04:05:21;62.57;;;4.90;;
4166;SDS011;2097;51.104;7.150;2022-07-23T04:07:48;62.20;;;4.20;;
4166;SDS011;2097;51.104;7.150;2022-07-23T04:10:15;62.37;;;4.70;;
4166;SDS011;2097;51.104;7.150;2022-07-23T04:12:42;62.43;;;4.73;;
4166;SDS011;2097;51.104;7.150;2022-07-23T04:15:10;62.10;;;4.77;;
4166;SDS011;2097;51.104;7.150;2022-07-23T04:17:37;62.27;;;4.37;;
4166;SDS011;2097;51.104;7.150;2022-07-23T04:20:07;62.03;;;4.30;;
4166;SDS011;2097;51.104;7.150;2022-07-23T04:22:34;62.07;;;4.63;;
4166;SDS011;2097;51.104;7.150;2022-07-23T04:25:01;62.00;;;4.30;;
4166;SDS011;2097;51.104;7.150;2022-07-23T04:27:28;61.70;;;4.57;;
4166;SDS011;2097;51.104;7.150;2022-07-23T04:29:55;62.10;;;4.53;;
4166;SDS011;2097;51.104;7.150;2022-07-23T04:32:23;62.77;;;4.97;;
4166;SDS011;2097;51.104;7.150;2022-07-23T04:34:50;61.90;;;4.10;;
4166;SDS011;2097;51.104;7.150;2022-07-23T04:37:16;62.17;;;4.27;;
4166;SDS011;2097;51.104;7.150;2022-07-23T04:39:43;61.60;;;3.53;;
4166;SDS011;2097;51.104;7.150;2022-07-23T04:42:10;64.30;;;4.23;;
4166;SDS011;2097;51.104;7.150;2022-07-23T04:44:37;61.63;;;3.67;;
4166;SDS011;2097;51.104;7.150;2022-07-23T04:47:04;61.60;;;4.07;;
4166;SDS011;2097;51.104;7.150;2022-07-23T04:49:32;61.57;;;3.80;;
4166;SDS011;2097;51.104;7.150;2022-07-23T04:51:59;61.57;;;3.90;;
4166;SDS011;2097;51.104;7.150;2022-07-23T04:54:25;61.93;;;4.07;;
4166;SDS011;2097;51.104;7.150;2022-07-23T04:56:52;61.67;;;4.00;;
4166;SDS011;2097;51.104;7.150;2022-07-23T04:59:19;61.73;;;4.20;;
4166;SDS011;2097;51.104;7.150;2022-07-23T05:01:46;61.73;;;3.83;;
4166;SDS011;2097;51.104;7.150;2022-07-23T05:04:13;61.97;;;4.37;;
4166;SDS011;2097;51.104;7.150;2022-07-23T05:06:41;61.50;;;4.13;;
4166;SDS011;2097;51.104;7.150;2022-07-23T05:09:07;61.77;;;3.93;;
4166;SDS011;2097;51.104;7.150;2022-07-23T05:11:34;61.10;;;3.60;;
4166;SDS011;2097;51.104;7.150;2022-07-23T05:14:01;61.40;;;4.27;;
4166;SDS011;2097;51.104;7.150;2022-07-23T05:16:28;61.70;;;4.60;;
4166;SDS011;2097;51.104;7.150;2022-07-23T05:18:54;61.97;;;4.60;;
4166;SDS011;2097;51.104;7.150;2022-07-23T05:21:21;62.57;;;5.33;;
4166;SDS011;2097;51.104;7.150;2022-07-23T05:23:49;62.67;;;5.40;;
4166;SDS011;2097;51.104;7.150;2022-07-23T05:26:16;62.17;;;5.40;;
4166;SDS011;2097;51.104;7.150;2022-07-23T05:28:43;62.57;;;5.77;;
4166;SDS011;2097;51.104;7.150;2022-07-23T05:31:10;61.97;;;5.30;;
4166;SDS011;2097;51.104;7.150;2022-07-23T05:33:36;62.60;;;5.93;;
4166;SDS011;2097;51.104;7.150;2022-07-23T05:36:04;62.67;;;6.30;;
4166;SDS011;2097;51.104;7.150;2022-07-23T05:38:31;63.17;;;6.77;;
4166;SDS011;2097;51.104;7.150;2022-07-23T05:41:00;62.97;;;6.07;;
4166;SDS011;2097;51.104;7.150;2022-07-23T05:43:27;62.07;;;4.60;;
4166;SDS011;2097;51.104;7.150;2022-07-23T05:45:55;62.73;;;5.10;;
4166;SDS011;2097;51.104;7.150;2022-07-23T05:48:22;62.20;;;4.50;;
4166;SDS011;2097;51.104;7.150;2022-07-23T05:50:48;62.20;;;5.17;;
4166;SDS011;2097;51.104;7.150;2022-07-23T05:53:15;61.90;;;4.60;;
4166;SDS011;2097;51.104;7.150;2022-07-23T05:55:42;62.23;;;4.47;;
4166;SDS011;2097;51.104;7.150;2022-07-23T05:58:10;62.70;;;5.17;;
4166;SDS011;2097;51.104;7.150;2022-07-23T06:00:37;62.47;;;5.43;;
4166;SDS011;2097;51.104;7.150;2022-07-23T06:03:04;62.57;;;5.30;;
4166;SDS011;2097;51.104;7.150;2022-07-23T06:05:30;62.90;;;6.20;;
4166;SDS011;2097;51.104;7.150;2022-07-23T06:07:57;62.60;;;5.10;;
4166;SDS011;2097;51.104;7.150;2022-07-23T06:10:24;62.50;;;5.60;;
4166;SDS011;2097;51.104;7.150;2022-07-23T06:12:51;62.27;;;5.63;;
4166;SDS011;2097;51.104;7.150;2022-07-23T06:15:19;62.23;;;5.23;;
4166;SDS011;2097;51.104;7.150;2022-07-23T06:17:46;62.50;;;5.33;;
4166;SDS011;2097;51.104;7.150;2022-07-23T06:20:13;62.13;;;5.13;;
4166;SDS011;2097;51.104;7.150;2022-07-23T06:22:39;62.10;;;5.03;;
4166;SDS011;2097;51.104;7.150;2022-07-23T06:25:07;61.93;;;5.20;;
4166;SDS011;2097;51.104;7.150;2022-07-23T06:27:34;62.70;;;5.73;;
4166;SDS011;2097;51.104;7.150;2022-07-23T06:30:01;63.00;;;6.50;;
4166;SDS011;2097;51.104;7.150;2022-07-23T06:32:29;62.80;;;6.17;;
4166;SDS011;2097;51.104;7.150;2022-07-23T06:34:56;63.90;;;5.73;;
4166;SDS011;2097;51.104;7.150;2022-07-23T06:37:22;62.13;;;5.20;;
4166;SDS011;2097;51.104;7.150;2022-07-23T06:39:49;62.27;;;4.80;;
4166;SDS011;2097;51.104;7.150;2022-07-23T06:42:16;61.57;;;3.77;;
4166;SDS011;2097;51.104;7.150;2022-07-23T06:44:43;62.03;;;4.20;;
4166;SDS011;2097;51.104;7.150;2022-07-23T06:47:09;61.60;;;4.00;;
4166;SDS011;2097;51.104;7.150;2022-07-23T06:49:38;62.30;;;5.50;;
4166;SDS011;2097;51.104;7.150;2022-07-23T06:52:06;62.27;;;5.47;;
4166;SDS011;2097;51.104;7.150;2022-07-23T06:54:33;61.97;;;4.53;;
4166;SDS011;2097;51.104;7.150;2022-07-23T06:56:59;61.83;;;4.70;;
4166;SDS011;2097;51.104;7.150;2022-07-23T06:59:27;61.90;;;4.60;;
4166;SDS011;2097;51.104;7.150;2022-07-23T07:01:53;61.40;;;3.97;;
4166;SDS011;2097;51.104;7.150;2022-07-23T07:04:20;61.80;;;4.27;;
4166;SDS011;2097;51.104;7.150;2022-07-23T07:06:48;61.60;;;4.50;;
4166;SDS011;2097;51.104;7.150;2022-07-23T07:09:15;61.40;;;3.60;;
4166;SDS011;2097;51.104;7.150;2022-07-23T07:11:43;61.77;;;3.80;;
4166;SDS011;2097;51.104;7.150;2022-07-23T07:14:09;61.70;;;3.77;;
4166;SDS011;2097;51.104;7.150;2022-07-23T07:16:36;61.97;;;4.43;;
4166;SDS011;2097;51.104;7.150;2022-07-23T07:19:03;61.87;;;4.37;;
4166;SDS011;2097;51.104;7.150;2022-07-23T07:21:30;62.07;;;4.37;;
4166;SDS011;2097;51.104;7.150;2022-07-23T07:23:58;61.60;;;3.93;;
4166;SDS011;2097;51.104;7.150;2022-07-23T07:26:25;62.07;;;4.77;;
4166;SDS011;2097;51.104;7.150;2022-07-23T07:28:52;61.80;;;4.67;;
4166;SDS011;2097;51.104;7.150;2022-07-23T07:31:19;62.00;;;4.90;;
4166;SDS011;2097;51.104;7.150;2022-07-23T07:33:45;62.57;;;5.30;;
4166;SDS011;2097;51.104;7.150;2022-07-23T07:36:13;61.90;;;4.40;;
4166;SDS011;2097;51.104;7.150;2022-07-23T07:38:39;62.17;;;4.50;;
4166;SDS011;2097;51.104;7.150;2022-07-23T07:41:08;62.40;;;5.03;;
4166;SDS011;2097;51.104;7.150;2022-07-23T07:43:35;62.27;;;5.03;;
4166;SDS011;2097;51.104;7.150;2022-07-23T07:46:02;62.53;;;4.83;;
4166;SDS011;2097;51.104;7.150;2022-07-23T07:48:29;62.47;;;5.13;;
4166;SDS011;2097;51.104;7.150;2022-07-23T07:50:56;62.47;;;5.97;;
4166;SDS011;2097;51.104;7.150;2022-07-23T07:53:23;63.60;;;6.80;;
4166;SDS011;2097;51.104;7.150;2022-07-23T07:55:49;63.43;;;6.00;;
4166;SDS011;2097;51.104;7.150;2022-07-23T07:58:18;62.80;;;5.40;;
4166;SDS011;2097;51.104;7.150;2022-07-23T08:00:44;62.47;;;5.60;;
4166;SDS011;2097;51.104;7.150;2022-07-23T08:03:11;62.40;;;5.33;;
4166;SDS011;2097;51.104;7.150;2022-07-23T08:05:38;62.33;;;4.23;;
4166;SDS011;2097;51.104;7.150;2022-07-23T08:08:05;61.40;;;4.90;;
4166;SDS011;2097;51.104;7.150;2022-07-23T08:10:34;61.90;;;4.47;;
4166;SDS011;2097;51.104;7.150;2022-07-23T08:13:01;62.00;;;4.07;;
4166;SDS011;2097;51.104;7.150;2022-07-23T08:15:30;61.40;;;3.63;;
4166;SDS011;2097;51.104;7.150;2022-07-23T08:17:57;62.03;;;3.63;;
4166;SDS011;2097;51.104;7.150;2022-07-23T08:20:25;61.47;;;3.50;;
4166;SDS011;2097;51.104;7.150;2022-07-23T08:22:53;61.67;;;3.37;;
4166;SDS011;2097;51.104;7.150;2022-07-23T08:25:22;61.10;;;3.90;;
4166;SDS011;2097;51.104;7.150;2022-07-23T08:27:50;62.07;;;4.13;;
4166;SDS011;2097;51.104;7.150;2022-07-23T08:30:18;62.17;;;3.90;;
4166;SDS011;2097;51.104;7.150;2022-07-23T08:32:56;61.70;;;4.00;;
4166;SDS011;2097;51.104;7.150;2022-07-23T08:35:27;62.13;;;4.50;;
4166;SDS011;2097;51.104;7.150;2022-07-23T08:37:55;62.57;;;5.00;;
4166;SDS011;2097;51.104;7.150;2022-07-23T08:40:23;62.37;;;4.47;;
4166;SDS011;2097;51.104;7.150;2022-07-23T08:42:51;62.17;;;4.47;;
4166;SDS011;2097;51.104;7.150;2022-07-23T08:45:19;61.67;;;4.23;;
4166;SDS011;2097;51.104;7.150;2022-07-23T08:47:51;61.50;;;4.00;;
4166;SDS011;2097;51.104;7.150;2022-07-23T08:50:21;62.10;;;4.40;;
4166;SDS011;2097;51.104;7.150;2022-07-23T08:52:50;62.17;;;4.70;;
4166;SDS011;2097;51.104;7.150;2022-07-23T08:55:17;61.87;;;4.37;;
4166;SDS011;2097;51.104;7.150;2022-07-23T08:57:45;62.07;;;4.40;;
4166;SDS011;2097;51.104;7.150;2022-07-23T09:00:15;62.07;;;4.33;;
4166;SDS011;2097;51.104;7.150;2022-07-23T09:02:43;62.23;;;4.60;;
4166;SDS011;2097;51.104;7.150;2022-07-23T09:05:11;61.60;;;5.07;;
4166;SDS011;2097;51.104;7.150;2022-07-23T09:10:36;62.90;;;5.60;;
4166;SDS011;2097;51.104;7.150;2022-07-23T09:13:22;63.10;;;5.90;;
4166;SDS011;2097;51.104;7.150;2022-07-23T09:15:51;61.60;;;5.23;;
4166;SDS011;2097;51.104;7.150;2022-07-23T09:18:19;62.23;;;4.40;;
4166;SDS011;2097;51.104;7.150;2022-07-23T09:21:04;62.23;;;5.00;;
4166;SDS011;2097;51.104;7.150;2022-07-23T09:23:37;62.10;;;4.67;;
4166;SDS011;2097;51.104;7.150;2022-07-23T09:28:53;61.80;;;4.23;;
4166;SDS011;2097;51.104;7.150;2022-07-23T09:31:22;62.27;;;4.30;;
4166;SDS011;2097;51.104;7.150;2022-07-23T09:33:50;61.60;;;4.57;;
4166;SDS011;2097;51.104;7.150;2022-07-23T09:36:26;62.30;;;4.53;;
4166;SDS011;2097;51.104;7.150;2022-07-23T09:38:56;62.17;;;5.10;;
4166;SDS011;2097;51.104;7.150;2022-07-23T09:41:23;62.57;;;5.57;;
4166;SDS011;2097;51.104;7.150;2022-07-23T09:43:56;62.23;;;5.33;;
4166;SDS011;2097;51.104;7.150;2022-07-23T09:46:24;62.60;;;5.00;;
4166;SDS011;2097;51.104;7.150;2022-07-23T09:48:51;62.50;;;5.83;;
4166;SDS011;2097;51.104;7.150;2022-07-23T09:51:19;62.37;;;5.63;;
4166;SDS011;2097;51.104;7.150;2022-07-23T09:53:57;62.20;;;4.87;;
4166;SDS011;2097;51.104;7.150;2022-07-23T09:56:23;62.37;;;4.80;;
4166;SDS011;2097;51.104;7.150;2022-07-23T09:58:53;61.83;;;4.73;;
4166;SDS011;2097;51.104;7.150;2022-07-23T10:01:28;62.37;;;4.90;;
4166;SDS011;2097;51.104;7.150;2022-07-23T10:03:56;62.17;;;3.90;;
4166;SDS011;2097;51.104;7.150;2022-07-23T10:06:24;62.07;;;4.23;;
4166;SDS011;2097;51.104;7.150;2022-07-23T10:08:52;62.37;;;4.60;;
4166;SDS011;2097;51.104;7.150;2022-07-23T10:11:26;62.40;;;4.70;;
4166;SDS011;2097;51.104;7.150;2022-07-23T10:13:53;62.57;;;5.37;;
4166;SDS011;2097;51.104;7.150;2022-07-23T10:16:20;62.53;;;5.03;;
4166;SDS011;2097;51.104;7.150;2022-07-23T10:18:48;62.57;;;5.07;;
4166;SDS011;2097;51.104;7.150;2022-07-23T10:21:16;62.77;;;5.10;;
4166;SDS011;2097;51.104;7.150;2022-07-23T10:23:51;62.37;;;4.90;;
4166;SDS011;2097;51.104;7.150;2022-07-23T10:26:30;62.13;;;4.30;;
4166;SDS011;2097;51.104;7.150;2022-07-23T10:29:06;62.27;;;4.23;;
4166;SDS011;2097;51.104;7.150;2022-07-23T10:31:45;62.97;;;5.00;;
4166;SDS011;2097;51.104;7.150;2022-07-23T10:34:21;62.37;;;4.70;;
4166;SDS011;2097;51.104;7.150;2022-07-23T10:36:57;63.03;;;5.90;;
4166;SDS011;2097;51.104;7.150;2022-07-23T10:39:32;62.17;;;4.70;;
4166;SDS011;2097;51.104;7.150;2022-07-23T10:42:09;62.27;;;4.27;;
4166;SDS011;2097;51.104;7.150;2022-07-23T10:44:38;62.03;;;3.93;;
4166;SDS011;2097;51.104;7.150;2022-07-23T10:47:07;62.13;;;4.10;;
4166;SDS011;2097;51.104;7.150;2022-07-23T10:50:16;62.00;;;4.23;;
4166;SDS011;2097;51.104;7.150;2022-07-23T10:52:55;62.17;;;4.23;;
4166;SDS011;2097;51.104;7.150;2022-07-23T10:55:40;62.47;;;4.57;;
4166;SDS011;2097;51.104;7.150;2022-07-23T10:58:10;62.33;;;4.80;;
4166;SDS011;2097;51.104;7.150;2022-07-23T11:00:43;62.40;;;4.43;;
4166;SDS011;2097;51.104;7.150;2022-07-23T11:05:55;62.40;;;4.83;;
4166;SDS011;2097;51.104;7.150;2022-07-23T11:08:21;62.43;;;4.33;;
4166;SDS011;2097;51.104;7.150;2022-07-23T11:10:49;62.37;;;4.63;;
4166;SDS011;2097;51.104;7.150;2022-07-23T11:13:32;62.43;;;4.30;;
4166;SDS011;2097;51.104;7.150;2022-07-23T11:16:14;62.80;;;5.27;;
4166;SDS011;2097;51.104;7.150;2022-07-23T11:21:44;62.30;;;4.73;;
4166;SDS011;2097;51.104;7.150;2022-07-23T11:24:18;62.50;;;4.73;;
4166;SDS011;2097;51.104;7.150;2022-07-23T11:26:48;63.10;;;5.83;;
4166;SDS011;2097;51.104;7.150;2022-07-23T11:35:23;64.17;;;7.63;;
4166;SDS011;2097;51.104;7.150;2022-07-23T11:37:52;65.07;;;9.40;;
4166;SDS011;2097;51.104;7.150;2022-07-23T11:40:23;64.40;;;8.00;;
4166;SDS011;2097;51.104;7.150;2022-07-23T11:42:51;64.70;;;7.00;;
4166;SDS011;2097;51.104;7.150;2022-07-23T11:45:22;64.30;;;8.13;;
4166;SDS011;2097;51.104;7.150;2022-07-23T11:47:49;64.17;;;7.73;;
4166;SDS011;2097;51.104;7.150;2022-07-23T11:50:16;64.30;;;7.60;;
4166;SDS011;2097;51.104;7.150;2022-07-23T11:52:42;62.67;;;4.47;;
4166;SDS011;2097;51.104;7.150;2022-07-23T11:55:10;62.27;;;3.97;;
4166;SDS011;2097;51.104;7.150;2022-07-23T11:57:38;62.63;;;4.20;;
4166;SDS011;2097;51.104;7.150;2022-07-23T12:00:06;62.67;;;4.30;;
4166;SDS011;2097;51.104;7.150;2022-07-23T12:02:37;62.60;;;5.00;;
4166;SDS011;2097;51.104;7.150;2022-07-23T12:05:05;62.70;;;4.50;;
4166;SDS011;2097;51.104;7.150;2022-07-23T12:07:34;62.83;;;5.10;;
4166;SDS011;2097;51.104;7.150;2022-07-23T12:10:03;62.87;;;4.90;;
4166;SDS011;2097;51.104;7.150;2022-07-23T12:12:35;62.60;;;4.90;;
4166;SDS011;2097;51.104;7.150;2022-07-23T12:15:04;63.30;;;5.43;;
4166;SDS011;2097;51.104;7.150;2022-07-23T12:17:34;63.10;;;5.57;;
4166;SDS011;2097;51.104;7.150;2022-07-23T12:20:03;63.38;;;6.32;;
4166;SDS011;2097;51.104;7.150;2022-07-23T12:22:35;63.00;;;5.20;;
4166;SDS011;2097;51.104;7.150;2022-07-23T12:25:05;62.70;;;4.80;;
4166;SDS011;2097;51.104;7.150;2022-07-23T12:27:34;62.70;;;5.20;;
4166;SDS011;2097;51.104;7.150;2022-07-23T12:30:20;62.75;;;5.40;;
4166;SDS011;2097;51.104;7.150;2022-07-23T12:33:09;63.00;;;5.40;;
4166;SDS011;2097;51.104;7.150;2022-07-23T12:35:39;62.70;;;5.50;;
4166;SDS011;2097;51.104;7.150;2022-07-23T12:38:08;63.22;;;6.05;;
4166;SDS011;2097;51.104;7.150;2022-07-23T12:40:37;62.53;;;5.40;;
4166;SDS011;2097;51.104;7.150;2022-07-23T12:43:10;63.33;;;5.82;;
4166;SDS011;2097;51.104;7.150;2022-07-23T12:45:45;62.78;;;5.07;;
4166;SDS011;2097;51.104;7.150;2022-07-23T12:48:16;62.33;;;5.25;;
4166;SDS011;2097;51.104;7.150;2022-07-23T12:50:51;63.15;;;6.18;;
4166;SDS011;2097;51.104;7.150;2022-07-23T12:53:22;64.05;;;5.53;;
4166;SDS011;2097;51.104;7.150;2022-07-23T12:55:56;63.33;;;6.18;;
4166;SDS011;2097;51.104;7.150;2022-07-23T12:58:24;63.13;;;5.70;;
4166;SDS011;2097;51.104;7.150;2022-07-23T13:00:59;62.63;;;5.28;;
4166;SDS011;2097;51.104;7.150;2022-07-23T13:03:28;62.55;;;5.10;;
4166;SDS011;2097;51.104;7.150;2022-07-23T13:05:59;62.75;;;5.10;;
4166;SDS011;2097;51.104;7.150;2022-07-23T13:08:27;63.03;;;5.82;;
4166;SDS011;2097;51.104;7.150;2022-07-23T13:10:55;62.85;;;5.25;;
4166;SDS011;2097;51.104;7.150;2022-07-23T13:13:23;62.63;;;4.75;;
4166;SDS011;2097;51.104;7.150;2022-07-23T13:15:51;62.55;;;4.72;;
4166;SDS011;2097;51.104;7.150;2022-07-23T13:18:18;63.13;;;5.47;;
4166;SDS011;2097;51.104;7.150;2022-07-23T13:20:45;62.75;;;4.88;;
4166;SDS011;2097;51.104;7.150;2022-07-23T13:23:15;63.00;;;5.53;;
4166;SDS011;2097;51.104;7.150;2022-07-23T13:25:42;62.90;;;5.40;;
4166;SDS011;2097;51.104;7.150;2022-07-23T13:28:11;63.65;;;5.55;;
4166;SDS011;2097;51.104;7.150;2022-07-23T13:30:38;63.05;;;5.45;;
4166;SDS011;2097;51.104;7.150;2022-07-23T13:33:06;63.00;;;5.60;;
4166;SDS011;2097;51.104;7.150;2022-07-23T13:35:34;63.10;;;5.90;;
4166;SDS011;2097;51.104;7.150;2022-07-23T13:38:02;62.75;;;5.28;;
4166;SDS011;2097;51.104;7.150;2022-07-23T13:40:30;63.60;;;5.47;;
4166;SDS011;2097;51.104;7.150;2022-07-23T13:42:57;63.35;;;6.10;;
4166;SDS011;2097;51.104;7.150;2022-07-23T13:45:24;64.30;;;5.60;;
4166;SDS011;2097;51.104;7.150;2022-07-23T13:47:51;62.92;;;5.38;;
4166;SDS011;2097;51.104;7.150;2022-07-23T13:50:17;63.33;;;5.82;;
4166;SDS011;2097;51.104;7.150;2022-07-23T13:52:44;62.85;;;5.90;;
4166;SDS011;2097;51.104;7.150;2022-07-23T13:55:11;63.25;;;5.57;;
4166;SDS011;2097;51.104;7.150;2022-07-23T13:57:39;62.55;;;5.22;;
4166;SDS011;2097;51.104;7.150;2022-07-23T14:00:07;63.33;;;5.78;;
4166;SDS011;2097;51.104;7.150;2022-07-23T14:02:36;62.72;;;5.15;;
4166;SDS011;2097;51.104;7.150;2022-07-23T14:05:04;63.30;;;5.82;;
4166;SDS011;2097;51.104;7.150;2022-07-23T14:07:31;62.95;;;5.22;;
4166;SDS011;2097;51.104;7.150;2022-07-23T14:09:58;62.85;;;5.63;;
4166;SDS011;2097;51.104;7.150;2022-07-23T14:12:25;63.20;;;5.38;;
4166;SDS011;2097;51.104;7.150;2022-07-23T14:14:53;63.03;;;5.60;;
4166;SDS011;2097;51.104;7.150;2022-07-23T14:17:20;63.22;;;5.60;;
4166;SDS011;2097;51.104;7.150;2022-07-23T14:19:47;62.58;;;5.07;;
4166;SDS011;2097;51.104;7.150;2022-07-23T14:22:14;63.28;;;5.75;;
4166;SDS011;2097;51.104;7.150;2022-07-23T14:24:40;62.92;;;5.82;;
4166;SDS011;2097;51.104;7.150;2022-07-23T14:27:08;63.33;;;6.18;;
4166;SDS011;2097;51.104;7.150;2022-07-23T14:29:35;62.83;;;5.40;;
4166;SDS011;2097;51.104;7.150;2022-07-23T14:32:03;64.07;;;7.18;;
4166;SDS011;2097;51.104;7.150;2022-07-23T14:34:30;63.22;;;5.80;;
4166;SDS011;2097;51.104;7.150;2022-07-23T14:36:57;64.53;;;7.20;;
4166;SDS011;2097;51.104;7.150;2022-07-23T14:39:25;64.57;;;6.97;;
4166;SDS011;2097;51.104;7.150;2022-07-23T14:41:52;63.55;;;6.05;;
4166;SDS011;2097;51.104;7.150;2022-07-23T14:44:18;63.15;;;5.75;;
4166;SDS011;2097;51.104;7.150;2022-07-23T14:46:45;63.97;;;6.20;;
4166;SDS011;2097;51.104;7.150;2022-07-23T14:49:14;63.42;;;6.68;;
4166;SDS011;2097;51.104;7.150;2022-07-23T14:51:42;62.67;;;5.43;;
4166;SDS011;2097;51.104;7.150;2022-07-23T14:54:09;63.85;;;6.13;;
4166;SDS011;2097;51.104;7.150;2022-07-23T14:56:36;63.13;;;6.53;;
4166;SDS011;2097;51.104;7.150;2022-07-23T14:59:03;63.63;;;6.13;;
4166;SDS011;2097;51.104;7.150;2022-07-23T15:01:31;64.30;;;7.50;;
4166;SDS011;2097;51.104;7.150;2022-07-23T15:03:58;64.63;;;8.52;;
4166;SDS011;2097;51.104;7.150;2022-07-23T15:06:26;64.13;;;8.10;;
4166;SDS011;2097;51.104;7.150;2022-07-23T15:08:53;63.15;;;5.90;;
4166;SDS011;2097;51.104;7.150;2022-07-23T15:11:20;62.83;;;5.38;;
4166;SDS011;2097;51.104;7.150;2022-07-23T15:13:49;63.35;;;6.30;;
4166;SDS011;2097;51.104;7.150;2022-07-23T15:16:17;63.13;;;5.80;;
4166;SDS011;2097;51.104;7.150;2022-07-23T15:18:43;62.75;;;5.10;;
4166;SDS011;2097;51.104;7.150;2022-07-23T15:21:10;63.67;;;6.75;;
4166;SDS011;2097;51.104;7.150;2022-07-23T15:23:38;62.83;;;4.65;;